Time;durP1;ratioP1;P1;durP2;ratioP2;P2;SDS_P1;SDS_P2;PMS_P1;PMS_P2;Temp;Humidity;BMP_temperature;BMP_pressure;BME280_temperature;BME280_humidity;BME280_pressure;Samples;Min_cycle;Max_cycle;Signal;HPM_P1;HPM_P2
2021/12/24 00:01:26;;;;;;;46.67;22.92;;;;;;;0.16;100.00;99190.66;4960622;28;20046;-88
2021/12/24 00:03:53;;;;;;;44.23;22.90;;;;;;;0.16;100.00;99193.25;4938137;28;20070;-87
2021/12/24 00:06:22;;;;;;;40.33;22.33;;;;;;;0.15;100.00;99191.50;4935926;29;20044;-89
2021/12/24 00:08:49;;;;;;;44.17;22.00;;;;;;;0.17;100.00;99179.38;4935673;28;20564;-88
2021/12/24 00:11:17;;;;;;;47.03;22.67;;;;;;;0.19;100.00;99186.31;4938456;28;20051;-88
2021/12/24 00:13:47;;;;;;;43.87;23.33;;;;;;;0.27;100.00;99175.91;4948030;28;20076;-88
2021/12/24 00:16:22;;;;;;;41.70;21.47;;;;;;;0.18;100.00;99175.94;4948744;28;20564;-88
2021/12/24 00:19:00;;;;;;;41.53;22.07;;;;;;;0.16;100.00;99172.47;4954461;28;20069;-88
2021/12/24 00:35:17;;;;;;;43.20;22.33;;;;;;;0.20;100.00;99177.66;4962748;28;20669;-88
2021/12/24 00:37:46;;;;;;;44.57;22.40;;;;;;;0.26;100.00;99187.19;4925778;28;20074;-87
2021/12/24 00:40:19;;;;;;;43.53;22.23;;;;;;;0.24;100.00;99170.72;4937530;28;20042;-88
2021/12/24 00:42:54;;;;;;;42.53;22.37;;;;;;;0.19;100.00;99172.47;4956215;28;20059;-89
2021/12/24 00:45:24;;;;;;;47.17;22.70;;;;;;;0.20;100.00;99175.06;4939134;28;20516;-87
2021/12/24 00:47:52;;;;;;;42.37;21.37;;;;;;;0.15;100.00;99169.00;4936355;28;20043;-87
2021/12/24 00:50:23;;;;;;;45.97;22.77;;;;;;;0.17;100.00;99162.09;4942238;28;20039;-87
2021/12/24 00:52:57;;;;;;;47.80;22.77;;;;;;;0.12;100.00;99158.63;4932653;29;20047;-87
2021/12/24 00:55:26;;;;;;;48.47;23.83;;;;;;;0.20;100.00;99163.81;4939989;28;20042;-88
2021/12/24 00:58:02;;;;;;;43.77;21.23;;;;;;;0.19;100.00;99164.69;4926335;29;20047;-87
2021/12/24 01:00:37;;;;;;;43.60;21.43;;;;;;;0.21;100.00;99155.16;4912612;28;20034;-87
2021/12/24 01:03:07;;;;;;;42.90;21.20;;;;;;;0.19;100.00;99147.38;4947229;28;20129;-86
2021/12/24 01:05:38;;;;;;;42.40;21.80;;;;;;;0.24;100.00;99149.94;4944394;28;20077;-87
2021/12/24 01:08:08;;;;;;;46.33;22.20;;;;;;;0.26;100.00;99150.81;4952719;28;20620;-86
2021/12/24 01:10:41;;;;;;;43.97;21.50;;;;;;;0.22;100.00;99149.94;4926390;28;20058;-87
2021/12/24 01:13:07;;;;;;;47.23;22.43;;;;;;;0.18;100.00;99161.22;4921652;29;20043;-86
2021/12/24 01:15:38;;;;;;;43.73;20.87;;;;;;;0.20;100.00;99156.03;4935377;28;20039;-87
2021/12/24 01:18:14;;;;;;;39.43;20.23;;;;;;;0.20;100.00;99162.09;4924971;28;20411;-86
2021/12/24 01:20:49;;;;;;;38.87;19.43;;;;;;;0.22;100.00;99155.16;4937491;29;20059;-87
2021/12/24 01:23:32;;;;;;;38.73;20.83;;;;;;;0.22;100.00;99154.28;4970196;28;20039;-86
2021/12/24 01:26:04;;;;;;;38.43;21.30;;;;;;;0.20;100.00;99162.09;4935211;29;20126;-87
2021/12/24 01:28:45;;;;;;;39.60;21.57;;;;;;;0.15;100.00;99161.22;4968530;28;20047;-87
2021/12/24 01:42:48;;;;;;;42.37;22.67;;;;;;;0.17;100.00;99153.41;4928438;28;20050;-86
2021/12/24 01:45:22;;;;;;;37.80;19.53;;;;;;;0.19;100.00;99138.72;4927990;28;20110;-87
2021/12/24 01:47:51;;;;;;;35.80;18.37;;;;;;;0.14;100.00;99138.72;4958021;28;20047;-87
2021/12/24 01:50:19;;;;;;;42.33;23.03;;;;;;;0.12;100.00;99130.06;4933395;29;20043;-87
2021/12/24 01:52:48;;;;;;;44.13;20.20;;;;;;;0.14;100.00;99132.66;4933414;28;20035;-87
2021/12/24 01:55:16;;;;;;;48.00;22.60;;;;;;;0.17;100.00;99122.25;4940719;28;20055;-87
2021/12/24 01:57:43;;;;;;;50.50;24.83;;;;;;;0.18;100.00;99121.41;4933843;28;20077;-87
2021/12/24 02:00:16;;;;;;;43.13;24.20;;;;;;;0.17;100.00;99132.63;4947979;28;20485;-88
2021/12/24 02:02:46;;;;;;;40.58;20.00;;;;;;;0.15;100.00;99130.06;4925605;28;20051;-87
2021/12/24 02:05:13;;;;;;;41.33;19.97;;;;;;;0.14;100.00;99120.53;4924368;28;20473;-87
2021/12/24 02:07:40;;;;;;;42.60;19.80;;;;;;;0.17;100.00;99123.16;4928805;28;20077;-88
2021/12/24 02:10:11;;;;;;;40.23;21.20;;;;;;;0.18;100.00;99121.41;4940149;28;20071;-88
2021/12/24 02:12:38;;;;;;;34.67;19.93;;;;;;;0.18;100.00;99121.41;4939601;28;20043;-87
2021/12/24 02:15:11;;;;;;;37.57;19.03;;;;;;;0.22;100.00;99121.38;4936015;28;20085;-87
2021/12/24 02:28:53;;;;;;;30.10;16.60;;;;;;;0.13;100.00;99085.06;4948593;28;20075;-83
2021/12/24 02:31:25;;;;;;;30.07;16.20;;;;;;;0.17;100.00;99085.91;4933939;28;20072;-83
2021/12/24 02:33:53;;;;;;;28.60;14.80;;;;;;;0.14;100.00;99099.75;4948731;28;20046;-84
2021/12/24 02:36:21;;;;;;;27.17;13.83;;;;;;;0.16;100.00;99108.41;4951423;28;20046;-85
2021/12/24 02:38:49;;;;;;;28.03;15.83;;;;;;;0.14;100.00;99094.56;4935229;28;20050;-83
2021/12/24 02:41:16;;;;;;;28.73;14.57;;;;;;;0.08;100.00;99098.91;4932824;28;20043;-83
2021/12/24 02:43:43;;;;;;;27.47;15.77;;;;;;;0.13;100.00;99094.59;4930048;28;20058;-83
2021/12/24 02:46:14;;;;;;;27.20;14.00;;;;;;;0.12;100.00;99091.13;4933487;28;20038;-83
2021/12/24 02:54:10;;;;;;;29.23;14.57;;;;;;;0.14;100.00;99076.41;4958731;28;20050;-83
2021/12/24 02:56:39;;;;;;;27.70;13.77;;;;;;;0.16;100.00;99076.38;4931948;28;20089;-83
2021/12/24 02:59:10;;;;;;;26.80;14.33;;;;;;;0.16;100.00;99074.66;4930407;28;20054;-83
2021/12/24 03:01:40;;;;;;;26.77;13.83;;;;;;;0.14;100.00;99068.59;4929796;28;20051;-83
2021/12/24 03:04:07;;;;;;;26.40;14.23;;;;;;;0.16;100.00;99076.38;4956597;28;20073;-83
2021/12/24 03:06:38;;;;;;;25.33;13.73;;;;;;;0.15;100.00;99072.06;4936084;28;20043;-84
2021/12/24 03:09:08;;;;;;;23.23;12.53;;;;;;;0.16;100.00;99078.97;4940578;28;20050;-83
2021/12/24 03:11:35;;;;;;;25.90;13.80;;;;;;;0.17;100.00;99076.41;4942405;28;20043;-83
2021/12/24 03:14:04;;;;;;;22.33;12.53;;;;;;;0.16;100.00;99077.25;4943496;28;20452;-82
2021/12/24 03:16:32;;;;;;;22.53;12.83;;;;;;;0.16;100.00;99064.25;4930339;28;20043;-82
2021/12/24 03:18:59;;;;;;;31.40;14.37;;;;;;;0.16;100.00;99061.66;4958547;28;20050;-82
2021/12/24 03:21:39;;;;;;;27.53;13.63;;;;;;;0.17;100.00;99062.53;4957245;28;20046;-83
2021/12/24 03:26:38;;;;;;;24.40;12.67;;;;;;;0.18;100.00;99057.34;4957959;28;20053;-84
2021/12/24 03:29:07;;;;;;;21.73;12.43;;;;;;;0.19;100.00;99058.22;4957244;28;20070;-84
2021/12/24 03:31:36;;;;;;;23.47;12.60;;;;;;;0.18;100.00;99061.69;4962884;28;20058;-85
2021/12/24 03:34:09;;;;;;;25.13;12.63;;;;;;;0.22;100.00;99065.97;4939860;28;20103;-84
2021/12/24 03:36:37;;;;;;;22.30;12.23;;;;;;;0.20;100.00;99065.13;4955910;28;20069;-85
2021/12/24 03:39:06;;;;;;;21.97;11.93;;;;;;;0.18;100.00;99059.94;4935841;28;20058;-84
2021/12/24 03:41:33;;;;;;;27.30;13.70;;;;;;;0.19;100.00;99048.69;4956570;28;20042;-84
2021/12/24 03:43:59;;;;;;;28.30;13.87;;;;;;;0.19;100.00;99047.81;4941820;28;20098;-85
2021/12/24 03:46:39;;;;;;;23.53;12.97;;;;;;;0.20;100.00;99046.94;4940343;28;20042;-85
2021/12/24 03:49:15;;;;;;;24.33;12.27;;;;;;;0.17;100.00;99040.06;4937128;28;20114;-85
2021/12/24 03:51:51;;;;;;;23.27;13.03;;;;;;;0.22;100.00;99038.28;4935269;28;20086;-84
2021/12/24 03:57:04;;;;;;;23.63;12.10;;;;;;;0.19;100.00;99032.25;4956644;28;20129;-85
2021/12/24 03:59:30;;;;;;;27.47;13.70;;;;;;;0.20;100.00;99020.97;4958146;28;20557;-84
2021/12/24 04:01:57;;;;;;;26.93;13.43;;;;;;;0.19;100.00;99012.31;4936188;28;20102;-85
2021/12/24 04:04:24;;;;;;;23.03;11.60;;;;;;;0.21;100.00;99004.53;4940144;28;20131;-85
2021/12/24 04:06:50;;;;;;;25.70;12.60;;;;;;;0.19;100.00;99006.28;4947508;28;20042;-84
2021/12/24 04:09:18;;;;;;;26.03;13.30;;;;;;;0.22;100.00;99008.84;4933591;28;20416;-83
2021/12/24 04:11:44;;;;;;;24.17;12.40;;;;;;;0.21;100.00;99007.13;4954217;28;20046;-84
2021/12/24 04:14:11;;;;;;;22.60;12.37;;;;;;;0.21;100.00;99001.94;4932790;28;20050;-84
2021/12/24 04:16:39;;;;;;;26.07;12.97;;;;;;;0.23;100.00;98998.44;4945249;28;20158;-83
2021/12/24 04:27:20;;;;;;;20.70;11.27;;;;;;;0.22;100.00;98982.88;4945353;28;20130;-85
2021/12/24 04:29:47;;;;;;;23.60;13.50;;;;;;;0.22;100.00;98985.47;4945266;28;20049;-85
2021/12/24 04:32:18;;;;;;;23.80;12.83;;;;;;;0.23;100.00;98979.41;4934282;28;20043;-86
2021/12/24 04:34:49;;;;;;;24.23;12.60;;;;;;;0.23;100.00;98975.06;4952136;28;20113;-84
2021/12/24 05:02:09;;;;;;;21.03;11.57;;;;;;;0.25;100.00;98985.44;4943626;28;20053;-86
2021/12/24 05:04:46;;;;;;;21.57;11.37;;;;;;;0.23;100.00;98985.47;4945055;28;20081;-86
2021/12/24 05:10:03;;;;;;;23.33;11.67;;;;;;;0.23;100.00;98990.66;4917828;28;20050;-88
2021/12/24 05:12:34;;;;;;;20.63;10.50;;;;;;;0.20;100.00;98982.03;4943842;28;20494;-87
2021/12/24 05:15:02;;;;;;;20.50;10.27;;;;;;;0.24;100.00;98987.19;4945458;28;20046;-87
2021/12/24 05:18:06;;;;;;;18.07;10.13;;;;;;;0.22;100.00;98990.66;4948070;28;20054;-87
2021/12/24 05:23:02;;;;;;;22.10;10.27;;;;;;;0.18;100.00;98989.84;4973325;28;20123;-87
2021/12/24 05:25:29;;;;;;;18.30;10.43;;;;;;;0.18;100.00;98984.63;4941950;28;20157;-89
2021/12/24 05:27:55;;;;;;;19.93;10.40;;;;;;;0.18;100.00;98984.63;4960379;28;20046;-87
2021/12/24 05:30:24;;;;;;;20.47;10.87;;;;;;;0.18;100.00;98987.25;4942350;28;20062;-87
2021/12/24 05:32:51;;;;;;;17.50;9.60;;;;;;;0.19;100.00;98981.16;4944997;28;20053;-89
2021/12/24 05:35:17;;;;;;;19.03;9.50;;;;;;;0.19;100.00;98980.31;4941770;28;20046;-87
2021/12/24 05:37:44;;;;;;;17.73;10.20;;;;;;;0.18;100.00;98974.25;4943818;28;20045;-88
2021/12/24 05:40:11;;;;;;;22.20;9.50;;;;;;;0.17;100.00;98977.72;4935028;28;20093;-89
2021/12/24 05:42:37;;;;;;;19.73;10.27;;;;;;;0.15;100.00;98975.97;4952724;28;20042;-87
2021/12/24 05:45:06;;;;;;;18.57;9.57;;;;;;;0.14;100.00;98966.47;4940446;28;20038;-87
2021/12/24 05:47:33;;;;;;;18.33;9.93;;;;;;;0.15;100.00;98973.38;4944626;28;20407;-87
2021/12/24 05:50:00;;;;;;;16.57;9.07;;;;;;;0.14;100.00;98967.34;4937908;28;20046;-86
2021/12/24 05:52:27;;;;;;;19.07;10.97;;;;;;;0.16;100.00;98972.50;4956095;28;20211;-86
2021/12/24 05:54:54;;;;;;;20.60;10.43;;;;;;;0.17;100.00;98969.03;4947670;28;20046;-87
2021/12/24 05:57:21;;;;;;;20.33;10.67;;;;;;;0.14;100.00;98956.94;4933307;28;20042;-86
2021/12/24 05:59:47;;;;;;;17.37;9.40;;;;;;;0.14;100.00;98962.13;4941500;28;20046;-88
2021/12/24 06:02:14;;;;;;;17.23;9.73;;;;;;;0.17;100.00;98966.44;4955135;28;20101;-86
2021/12/24 06:04:41;;;;;;;22.03;10.80;;;;;;;0.19;100.00;98960.38;4948204;28;20049;-87
2021/12/24 06:07:07;;;;;;;21.50;11.40;;;;;;;0.22;100.00;98962.09;4946277;28;20050;-88
2021/12/24 06:09:34;;;;;;;19.37;10.77;;;;;;;0.21;100.00;98957.78;4948212;28;20085;-86
2021/12/24 06:12:00;;;;;;;18.83;10.20;;;;;;;0.20;100.00;98967.31;4943609;28;20079;-87
2021/12/24 06:14:27;;;;;;;18.23;9.70;;;;;;;0.22;100.00;98959.50;4943502;28;20499;-87
2021/12/24 06:17:02;;;;;;;22.13;11.67;;;;;;;0.22;100.00;98967.28;4946401;28;20130;-88
2021/12/24 06:19:32;;;;;;;17.10;9.83;;;;;;;0.24;100.00;98966.41;4953451;28;20448;-88
2021/12/24 06:21:59;;;;;;;16.40;8.83;;;;;;;0.25;100.00;98969.84;4949295;28;20034;-88
2021/12/24 06:24:26;;;;;;;20.47;9.90;;;;;;;0.25;100.00;98970.75;4957612;28;20104;-87
2021/12/24 06:26:53;;;;;;;16.97;9.27;;;;;;;0.31;100.00;98971.56;4964190;28;20073;-88
2021/12/24 06:29:23;;;;;;;16.93;8.97;;;;;;;0.25;100.00;98970.75;4955427;28;20046;-87
2021/12/24 06:31:50;;;;;;;16.83;8.27;;;;;;;0.26;100.00;98969.00;4937077;28;20105;-87
2021/12/24 06:34:17;;;;;;;17.80;9.57;;;;;;;0.24;100.00;98969.00;4957879;28;20503;-88
2021/12/24 06:36:47;;;;;;;17.67;9.80;;;;;;;0.24;100.00;98973.34;4945373;28;20090;-87
2021/12/24 06:39:15;;;;;;;14.87;8.83;;;;;;;0.24;100.00;98973.34;4936274;28;20065;-87
2021/12/24 06:41:43;;;;;;;17.90;9.47;;;;;;;0.27;100.00;98970.72;4943390;28;20057;-87
2021/12/24 06:44:11;;;;;;;17.30;8.67;;;;;;;0.32;100.00;98976.75;4941183;28;20054;-87
2021/12/24 06:46:40;;;;;;;16.07;8.17;;;;;;;0.33;100.00;98972.41;4943143;28;20046;-87
2021/12/24 06:49:09;;;;;;;17.30;9.07;;;;;;;0.29;100.00;98976.78;4958329;28;20051;-88
2021/12/24 06:51:36;;;;;;;19.13;10.20;;;;;;;0.31;100.00;98972.44;4939118;28;20150;-88
2021/12/24 06:54:05;;;;;;;19.47;9.90;;;;;;;0.27;100.00;98968.13;4943218;28;20450;-88
2021/12/24 06:56:32;;;;;;;21.07;10.97;;;;;;;0.31;100.00;98971.56;4960219;28;20042;-88
2021/12/24 06:58:59;;;;;;;18.27;9.77;;;;;;;0.31;100.00;98968.97;4940951;28;20077;-90
2021/12/24 07:01:26;;;;;;;20.53;10.73;;;;;;;0.26;100.00;98969.88;4934568;28;20578;-88
2021/12/24 07:03:52;;;;;;;18.27;10.13;;;;;;;0.24;100.00;98966.41;4952870;28;20047;-87
2021/12/24 07:06:19;;;;;;;17.33;9.70;;;;;;;0.24;100.00;98963.81;4940284;28;20495;-89
2021/12/24 07:08:46;;;;;;;16.80;9.03;;;;;;;0.22;100.00;98962.97;4942018;28;20104;-87
2021/12/24 07:11:13;;;;;;;17.07;9.20;;;;;;;0.30;100.00;98962.91;4938473;28;20570;-87
2021/12/24 07:13:40;;;;;;;16.50;9.57;;;;;;;0.28;100.00;98964.66;4944228;28;20055;-88
2021/12/24 07:16:06;;;;;;;14.80;8.60;;;;;;;0.31;100.00;98971.56;4933660;28;20047;-88
2021/12/24 07:18:33;;;;;;;19.10;9.10;;;;;;;0.37;100.00;98974.13;4954246;28;20141;-88
2021/12/24 07:21:00;;;;;;;19.00;9.33;;;;;;;0.27;100.00;98979.38;4961094;28;20530;-85
2021/12/24 07:23:26;;;;;;;13.40;7.43;;;;;;;0.33;100.00;98978.47;4956962;28;20042;-85
2021/12/24 07:25:53;;;;;;;15.17;7.80;;;;;;;0.30;100.00;98977.63;4940477;28;20042;-85
2021/12/24 07:28:20;;;;;;;15.93;8.70;;;;;;;0.32;100.00;98966.34;4937277;28;20042;-85
2021/12/24 07:30:46;;;;;;;16.23;8.10;;;;;;;0.29;100.00;98968.97;4951522;28;20045;-84
2021/12/24 07:33:14;;;;;;;14.90;8.33;;;;;;;0.33;100.00;98968.06;4957942;28;20093;-85
2021/12/24 07:35:45;;;;;;;13.53;7.63;;;;;;;0.27;100.00;98955.16;4937850;28;20422;-85
2021/12/24 07:38:13;;;;;;;13.57;7.43;;;;;;;0.31;100.00;98959.44;4971807;28;20034;-85
2021/12/24 07:40:44;;;;;;;12.20;7.53;;;;;;;0.30;100.00;98956.84;4948489;28;20054;-83
2021/12/24 07:43:11;;;;;;;13.47;7.17;;;;;;;0.43;100.00;98974.97;4946274;28;20062;-85
2021/12/24 07:45:40;;;;;;;10.57;6.27;;;;;;;0.32;100.00;98976.75;4936888;28;20654;-84
2021/12/24 07:48:11;;;;;;;10.83;6.43;;;;;;;0.28;100.00;98980.25;4959657;28;20484;-85
2021/12/24 07:53:14;;;;;;;13.77;7.40;;;;;;;0.27;100.00;98986.31;4960558;28;20042;-88
2021/12/24 07:55:41;;;;;;;13.20;7.27;;;;;;;0.29;100.00;98981.97;4935200;28;20051;-84
2021/12/24 07:58:08;;;;;;;14.67;7.80;;;;;;;0.34;100.00;98982.81;4958898;28;20489;-84
2021/12/24 08:00:37;;;;;;;15.90;9.10;;;;;;;0.30;100.00;98983.69;4952372;28;20527;-82
2021/12/24 08:03:04;;;;;;;13.53;7.10;;;;;;;0.30;100.00;98981.09;4969592;28;20035;-84
2021/12/24 08:05:34;;;;;;;14.77;7.57;;;;;;;0.30;100.00;98986.28;4940048;28;20045;-84
2021/12/24 08:08:02;;;;;;;13.43;7.30;;;;;;;0.29;100.00;98963.78;4960819;28;20141;-83
2021/12/24 08:10:31;;;;;;;13.00;7.53;;;;;;;0.35;100.00;98961.16;4966759;28;20057;-83
2021/12/24 08:12:58;;;;;;;11.57;6.70;;;;;;;0.44;100.00;98973.22;4969511;28;20121;-83
2021/12/24 08:15:25;;;;;;;13.37;6.93;;;;;;;0.37;100.00;98975.00;4964198;28;20550;-83
2021/12/24 08:17:52;;;;;;;13.20;7.03;;;;;;;0.41;100.00;98962.84;4950610;28;20486;-83
2021/12/24 08:20:23;;;;;;;12.37;6.53;;;;;;;0.36;100.00;98956.81;4964679;28;20043;-83
2021/12/24 08:22:52;;;;;;;12.90;7.20;;;;;;;0.45;100.00;98968.00;4956915;28;20051;-83
2021/12/24 08:25:19;;;;;;;13.20;7.23;;;;;;;0.43;100.00;98967.16;4946517;28;20448;-83
2021/12/24 08:27:46;;;;;;;11.87;5.97;;;;;;;0.42;100.00;98973.25;4949087;28;20058;-83
2021/12/24 09:59:10;;;;;;;6.37;3.57;;;;;;;0.68;100.00;98982.59;4985372;28;20045;-80
2021/12/24 10:01:44;;;;;;;7.37;4.50;;;;;;;0.74;100.00;98975.56;4957392;28;20171;-80
2021/12/24 10:04:17;;;;;;;10.43;4.63;;;;;;;0.82;100.00;98980.72;4946430;28;20042;-79
2021/12/24 10:06:50;;;;;;;5.20;3.60;;;;;;;0.78;100.00;98985.09;4977379;28;20107;-79
2021/12/24 10:09:17;;;;;;;4.47;2.40;;;;;;;0.74;100.00;98978.19;4974501;28;20097;-79
2021/12/24 10:11:56;;;;;;;7.67;3.47;;;;;;;0.82;100.00;98996.31;4957216;28;20538;-81
2021/12/24 10:14:39;;;;;;;8.75;4.47;;;;;;;0.82;100.00;99001.50;4955558;28;20046;-81
2021/12/24 10:17:18;;;;;;;5.57;3.10;;;;;;;0.87;100.00;98996.28;4956043;28;20054;-81
2021/12/24 10:19:47;;;;;;;4.07;2.50;;;;;;;0.85;100.00;98998.91;4948799;28;20046;-79
2021/12/24 10:22:15;;;;;;;5.23;2.90;;;;;;;0.79;100.00;98993.75;4944965;28;20413;-81
2021/12/24 10:24:42;;;;;;;4.10;2.17;;;;;;;0.77;100.00;98990.31;4945120;28;20051;-80
2021/12/24 10:27:11;;;;;;;4.27;2.33;;;;;;;0.70;100.00;98984.28;4947477;28;20077;-80
2021/12/24 10:29:41;;;;;;;4.47;2.90;;;;;;;0.84;100.00;98981.56;4960038;28;20073;-80
2021/12/24 10:32:11;;;;;;;5.00;2.53;;;;;;;0.73;100.00;99010.25;4945438;28;20043;-81
2021/12/24 10:34:39;;;;;;;5.33;3.20;;;;;;;0.78;100.00;99010.22;4956340;28;20039;-82
2021/12/24 10:37:18;;;;;;;4.47;2.90;;;;;;;0.76;100.00;98998.97;4943573;28;20050;-80
2021/12/24 10:39:46;;;;;;;4.17;1.90;;;;;;;0.74;100.00;98991.16;4947747;28;20042;-82
2021/12/24 10:42:21;;;;;;;3.97;2.20;;;;;;;0.77;100.00;98995.50;4970663;28;20104;-79
2021/12/24 10:44:50;;;;;;;3.10;2.00;;;;;;;0.89;100.00;99005.78;4962712;28;20046;-79
2021/12/24 10:47:27;;;;;;;3.57;2.50;;;;;;;0.86;100.00;99004.97;4945297;28;20049;-81
2021/12/24 10:53:20;;;;;;;2.70;2.10;;;;;;;0.82;100.00;98993.72;4980154;28;20061;-80
2021/12/24 10:55:53;;;;;;;3.30;2.00;;;;;;;0.91;100.00;98984.97;4943305;28;20118;-79
2021/12/24 10:58:23;;;;;;;4.93;2.27;;;;;;;0.90;100.00;98985.84;4951450;28;20088;-79
2021/12/24 11:00:55;;;;;;;4.00;2.10;;;;;;;0.94;100.00;98997.97;4940865;28;20038;-80
2021/12/24 11:03:31;;;;;;;3.37;2.27;;;;;;;0.96;100.00;98986.66;4945534;28;20050;-79
2021/12/24 11:06:08;;;;;;;3.27;2.00;;;;;;;1.02;100.00;98999.63;4962446;28;20074;-81
2021/12/24 11:08:36;;;;;;;4.80;2.87;;;;;;;1.08;100.00;99007.34;4938226;28;20047;-81
2021/12/24 11:11:06;;;;;;;2.97;2.30;;;;;;;1.10;100.00;99002.16;4976546;28;20042;-79
2021/12/24 11:13:41;;;;;;;5.10;3.10;;;;;;;1.13;100.00;99005.59;4936238;28;20074;-79
2021/12/24 11:16:11;;;;;;;3.90;2.60;;;;;;;1.19;100.00;98981.28;4954637;28;20114;-80
2021/12/24 11:18:43;;;;;;;10.50;5.17;;;;;;;1.27;100.00;98999.41;4954318;28;20042;-81
2021/12/24 11:21:25;;;;;;;13.57;5.60;;;;;;;1.24;100.00;99007.22;4947071;28;20137;-82
2021/12/24 11:23:53;;;;;;;10.00;5.33;;;;;;;1.12;100.00;99011.66;4960465;28;20042;-82
2021/12/24 11:26:27;;;;;;;5.20;3.30;;;;;;;1.01;100.00;99010.91;4940488;28;20117;-80
2021/12/24 11:28:55;;;;;;;3.50;2.07;;;;;;;1.05;100.00;98998.72;4979542;28;20050;-81
2021/12/24 11:31:30;;;;;;;3.87;2.70;;;;;;;0.88;100.00;98992.81;4976045;28;20043;-79
2021/12/24 11:34:01;;;;;;;4.87;2.43;;;;;;;0.88;100.00;98993.66;4973419;28;20545;-81
2021/12/24 11:36:31;;;;;;;3.23;2.30;;;;;;;0.95;100.00;99003.16;4949760;28;20039;-81
2021/12/24 11:39:06;;;;;;;3.33;2.20;;;;;;;0.85;100.00;99009.31;4969109;28;20120;-80
2021/12/24 11:41:40;;;;;;;3.70;2.50;;;;;;;0.89;100.00;99015.34;4970698;28;20034;-80
2021/12/24 11:44:11;;;;;;;2.57;2.23;;;;;;;0.81;100.00;99028.38;4943640;28;20066;-79
2021/12/24 11:47:08;;;;;;;3.80;2.60;;;;;;;0.82;100.00;99051.75;4963725;28;20125;-80
2021/12/24 11:49:54;;;;;;;4.15;2.67;;;;;;;0.80;100.00;99030.13;4946423;28;20089;-79
2021/12/24 11:52:26;;;;;;;4.30;2.60;;;;;;;0.75;100.00;99037.06;4955896;28;20143;-79
2021/12/24 11:54:59;;;;;;;;;;;;;;;0.76;100.00;99037.97;4944192;28;20050;-80
2021/12/24 11:57:27;;;;;;;3.87;2.63;;;;;;;0.78;100.00;99044.88;4978943;28;19957;-80
2021/12/24 11:59:54;;;;;;;3.73;2.97;;;;;;;0.77;100.00;99035.34;4941427;28;20568;-79
2021/12/24 12:02:41;;;;;;;3.60;2.60;;;;;;;0.69;100.00;99057.06;4968767;28;20057;-81
2021/12/24 12:05:13;;;;;;;5.20;3.80;;;;;;;0.76;100.00;99059.63;4998717;28;20076;-80
2021/12/24 12:07:43;;;;;;;7.60;4.45;;;;;;;0.71;100.00;99076.13;4973990;28;20093;-81
2021/12/24 12:10:11;;;;;;;6.63;3.60;;;;;;;0.63;100.00;99085.69;4968718;28;20069;-80
2021/12/24 12:12:40;;;;;;;7.67;5.40;;;;;;;0.67;100.00;99077.84;4986051;28;20570;-79
2021/12/24 12:15:24;;;;;;;5.07;3.00;;;;;;;0.58;100.00;99083.09;4963268;28;20098;-82
2021/12/24 12:17:54;;;;;;;5.30;3.50;;;;;;;0.65;100.00;99076.16;4986243;28;20038;-84
2021/12/24 12:20:57;;;;;;;7.07;4.27;;;;;;;0.61;100.00;99103.91;5002319;28;20042;-80
2021/12/24 12:23:46;;;;;;;6.37;3.93;;;;;;;0.56;100.00;99103.91;4990184;28;20035;-81
2021/12/24 12:26:43;;;;;;;5.40;4.07;;;;;;;0.53;100.00;99109.13;4964452;28;20044;-82
2021/12/24 12:29:44;;;;;;;6.10;4.23;;;;;;;0.61;100.00;99097.84;4958534;28;20043;-82
2021/12/24 12:32:12;;;;;;;5.17;3.80;;;;;;;0.63;100.00;99101.28;4964501;28;20650;-81
2021/12/24 12:34:39;;;;;;;4.73;3.93;;;;;;;0.62;100.00;99104.75;4993377;28;20038;-82
2021/12/24 12:37:27;;;;;;;7.10;4.70;;;;;;;0.63;100.00;99103.88;4981668;28;20407;-81
2021/12/24 12:40:05;;;;;;;6.27;4.23;;;;;;;0.62;100.00;99110.81;4988715;28;20110;-80
2021/12/24 12:42:51;;;;;;;7.23;4.87;;;;;;;0.63;100.00;99104.75;4973219;28;20039;-81
2021/12/24 12:45:23;;;;;;;7.73;4.40;;;;;;;0.73;100.00;99106.41;4967509;28;20049;-81
2021/12/24 12:47:57;;;;;;;5.80;4.03;;;;;;;0.72;100.00;99116.81;4964350;28;20622;-82
2021/12/24 12:50:26;;;;;;;6.72;4.20;;;;;;;0.58;100.00;99116.88;4944014;28;20046;-81
2021/12/24 12:53:25;;;;;;;7.43;4.50;;;;;;;0.74;100.00;99117.69;4947821;28;20065;-81
2021/12/24 12:56:18;;;;;;;7.33;4.40;;;;;;;0.50;100.00;99116.91;4947458;28;20049;-81
2021/12/24 12:58:58;;;;;;;9.37;5.00;;;;;;;0.51;100.00;99118.69;4961677;28;20118;-82
2021/12/24 13:01:26;;;;;;;7.60;5.30;;;;;;;0.48;100.00;99116.06;4979640;28;20062;-82
2021/12/24 13:04:00;;;;;;;7.77;5.00;;;;;;;0.51;100.00;99118.69;4961824;28;20045;-82
2021/12/24 13:06:38;;;;;;;8.43;5.13;;;;;;;0.61;100.00;99116.91;4963498;28;20062;-82
2021/12/24 13:09:18;;;;;;;7.77;4.27;;;;;;;0.55;100.00;99107.38;4957503;28;20409;-82
2021/12/24 13:11:48;;;;;;;7.87;5.10;;;;;;;0.52;100.00;99104.81;4956665;28;20037;-81
2021/12/24 13:14:17;;;;;;;7.87;5.40;;;;;;;0.62;100.00;99100.44;4976206;28;20038;-82
2021/12/24 13:16:54;;;;;;;8.33;4.77;;;;;;;0.55;100.00;99098.72;4947722;28;20054;-81
2021/12/24 13:24:53;;;;;;;7.43;5.33;;;;;;;0.46;100.00;99099.63;4958878;28;20069;-83
2021/12/24 13:27:25;;;;;;;7.87;4.90;;;;;;;0.48;100.00;99110.88;4960496;28;20800;-82
2021/12/24 13:30:14;;;;;;;7.00;5.17;;;;;;;0.56;100.00;99122.09;4937997;28;20050;-82
2021/12/24 13:32:53;;;;;;;8.83;5.60;;;;;;;0.58;100.00;99129.88;4948029;28;20054;-82
2021/12/24 13:35:31;;;;;;;7.33;4.93;;;;;;;0.54;100.00;99134.25;4970063;28;20475;-82
2021/12/24 13:37:58;;;;;;;9.13;5.50;;;;;;;0.54;100.00;99134.25;4957961;28;20043;-81
2021/12/24 13:40:31;;;;;;;17.43;9.43;;;;;;;0.60;100.00;99142.91;4953244;28;20712;-82
2021/12/24 13:43:04;;;;;;;11.80;7.32;;;;;;;0.54;100.00;99144.63;4960739;28;21793;-82
2021/12/24 13:45:35;;;;;;;12.00;7.17;;;;;;;0.51;100.00;99147.25;4948820;28;20125;-82
2021/12/24 13:48:14;;;;;;;8.87;5.80;;;;;;;0.56;100.00;99145.47;4960734;28;20047;-82
2021/12/24 13:56:41;;;;;;;9.70;7.03;;;;;;;0.51;100.00;99162.00;4970714;28;20045;-82
2021/12/24 13:59:11;;;;;;;8.60;5.87;;;;;;;0.48;100.00;99172.38;4975368;28;20048;-82
2021/12/24 14:01:42;;;;;;;9.47;6.30;;;;;;;0.56;100.00;99174.06;4976588;28;20077;-81
2021/12/24 14:04:11;;;;;;;8.60;5.60;;;;;;;0.52;100.00;99179.31;4963211;28;20304;-80
2021/12/24 14:06:44;;;;;;;12.33;7.33;;;;;;;0.47;100.00;99179.31;4964842;28;20129;-81
2021/12/24 14:09:13;;;;;;;15.73;7.28;;;;;;;0.50;100.00;99184.47;4962379;28;20049;-81
2021/12/24 14:11:41;;;;;;;12.80;8.53;;;;;;;0.50;100.00;99178.41;4962306;28;20053;-81
2021/12/24 14:14:38;;;;;;;15.93;9.00;;;;;;;0.52;100.00;99192.28;4943434;28;20617;-81
2021/12/24 14:19:44;;;;;;;10.82;6.47;;;;;;;0.51;100.00;99193.16;4969469;28;20745;-82
2021/12/24 14:22:13;;;;;;;9.43;6.20;;;;;;;0.56;100.00;99188.81;4966966;28;20043;-80
2021/12/24 14:25:00;;;;;;;9.77;5.93;;;;;;;0.49;100.00;99197.47;4938255;28;20658;-81
2021/12/24 14:27:29;;;;;;;14.00;7.30;;;;;;;0.55;100.00;99195.72;4948448;28;20732;-80
2021/12/24 14:29:59;;;;;;;10.00;6.13;;;;;;;0.51;100.00;99206.16;4969085;28;20046;-81
2021/12/24 14:32:31;;;;;;;9.77;6.53;;;;;;;0.55;100.00;99206.13;4940091;28;20066;-81
2021/12/24 14:35:14;;;;;;;9.40;5.77;;;;;;;0.45;100.00;99211.38;4967508;28;20550;-82
2021/12/24 14:37:43;;;;;;;8.50;5.40;;;;;;;0.44;100.00;99205.31;4965978;28;20055;-82
2021/12/24 14:40:13;;;;;;;8.17;5.37;;;;;;;0.45;100.00;99212.22;4958186;28;21598;-81
2021/12/24 14:42:43;;;;;;;12.63;6.63;;;;;;;0.49;100.00;99219.13;4948202;28;20061;-80
2021/12/24 14:45:14;;;;;;;8.67;5.47;;;;;;;0.51;100.00;99221.75;4943424;28;20515;-80
2021/12/24 14:47:41;;;;;;;10.70;5.87;;;;;;;0.49;100.00;99220.88;4983582;28;20468;-80
2021/12/24 14:50:11;;;;;;;10.47;6.17;;;;;;;0.54;100.00;99222.59;4959750;28;20053;-80
2021/12/24 14:52:38;;;;;;;10.10;7.10;;;;;;;0.54;100.00;99227.78;4959937;28;20146;-80
2021/12/24 14:55:09;;;;;;;8.30;5.63;;;;;;;0.50;100.00;99225.19;4957234;28;20046;-80
2021/12/24 14:57:44;;;;;;;11.53;6.70;;;;;;;0.49;100.00;99223.47;4964315;28;20045;-80